createdAt,value
2023-03-11T00:00:51.633Z,96385.47
2023-03-11T00:06:20.644Z,96417.31
2023-03-11T00:11:45.648Z,96457.53
2023-03-11T00:17:10.656Z,96500.97
2023-03-11T00:22:38.672Z,96509.22
2023-03-11T00:28:02.667Z,96471.69
2023-03-11T00:33:27.617Z,96478.28
2023-03-11T00:38:54.676Z,96475.03
2023-03-11T00:44:20.063Z,96467.13
2023-03-11T00:49:43.779Z,96495.56
2023-03-11T00:55:11.657Z,96474.50
2023-03-11T01:00:37.692Z,96486.13
2023-03-11T01:06:02.636Z,96505.31
2023-03-11T01:11:29.640Z,96485.13
2023-03-11T01:16:55.698Z,96522.72
2023-03-11T01:22:20.661Z,96525.28
2023-03-11T01:27:48.711Z,96532.50
2023-03-11T01:33:13.702Z,96560.97
2023-03-11T01:38:38.665Z,96593.59
2023-03-11T01:44:10.698Z,96571.19
2023-03-11T01:49:35.703Z,96584.41
2023-03-11T01:55:00.673Z,96632.50
2023-03-11T02:00:28.688Z,96629.56
2023-03-11T02:05:53.700Z,96642.16
2023-03-11T02:11:24.666Z,96649.22
2023-03-11T02:16:53.682Z,96657.53
2023-03-11T02:22:21.699Z,96689.19
2023-03-11T02:27:54.710Z,96719.81
2023-03-11T02:33:27.716Z,96716.28
2023-03-11T02:38:52.697Z,96722.41
2023-03-11T02:44:22.729Z,96731.75
2023-03-11T02:49:48.694Z,96737.50
2023-03-11T02:55:13.701Z,96764.81
2023-03-11T03:00:41.781Z,96772.38
2023-03-11T03:06:06.721Z,96760.09
2023-03-11T03:11:31.729Z,96786.19
2023-03-11T03:16:59.915Z,96770.84
2023-03-11T03:22:25.694Z,96821.22
2023-03-11T03:27:50.703Z,96809.06
2023-03-11T03:33:25.734Z,96829.72
2023-03-11T03:38:50.721Z,96831.25
2023-03-11T03:44:18.742Z,96858.59
2023-03-11T03:49:46.762Z,96860.69
2023-03-11T03:55:11.728Z,96869.22
2023-03-11T04:00:36.704Z,96885.00
2023-03-11T04:06:03.733Z,96882.63
2023-03-11T04:11:29.737Z,96896.03
2023-03-11T04:16:55.764Z,96909.72
2023-03-11T04:22:23.747Z,96925.22
2023-03-11T04:27:52.748Z,96929.53
2023-03-11T04:33:18.720Z,96948.34
2023-03-11T04:38:45.739Z,96955.78
2023-03-11T04:44:11.761Z,96962.72
2023-03-11T04:49:35.747Z,96966.09
2023-03-11T04:55:05.761Z,96969.75
2023-03-11T05:00:31.783Z,96975.16
2023-03-11T05:06:03.719Z,96997.50
2023-03-11T05:11:30.761Z,97002.28
2023-03-11T05:16:55.729Z,97008.81
2023-03-11T05:22:22.766Z,97014.94
2023-03-11T05:27:50.740Z,97022.91
2023-03-11T05:33:15.735Z,97024.56
2023-03-11T05:38:41.790Z,97045.25
2023-03-11T05:44:09.759Z,97043.16
2023-03-11T05:49:34.760Z,97054.88
2023-03-11T05:55:00.770Z,97062.00
2023-03-11T06:00:29.804Z,97078.44
2023-03-11T06:06:01.768Z,97061.91
2023-03-11T06:11:27.773Z,97086.59
2023-03-11T06:16:54.748Z,97090.53
2023-03-11T06:22:19.776Z,97101.38
2023-03-11T06:27:43.784Z,97113.56
2023-03-11T06:33:11.807Z,97123.06
2023-03-11T06:38:37.483Z,97125.28
2023-03-11T06:44:02.781Z,97137.00
2023-03-11T06:49:30.807Z,97166.94
2023-03-11T06:54:56.761Z,97164.44
2023-03-11T07:00:26.801Z,97185.38
2023-03-11T07:05:59.771Z,97195.09
2023-03-11T07:11:25.879Z,97204.28
2023-03-11T07:16:57.831Z,97203.06
2023-03-11T07:22:29.763Z,97209.66
2023-03-11T07:27:55.811Z,97230.34
2023-03-11T07:33:19.811Z,97241.03
2023-03-11T07:38:48.833Z,97245.47
2023-03-11T07:44:14.795Z,97257.72
2023-03-11T07:49:39.800Z,97269.69
2023-03-11T07:55:07.809Z,97273.03
2023-03-11T08:00:32.809Z,97275.19
2023-03-11T08:05:56.793Z,97297.13
2023-03-11T08:11:26.600Z,97297.91
2023-03-11T08:16:50.827Z,97305.25
2023-03-11T08:22:15.849Z,97312.44
2023-03-11T08:27:45.799Z,97319.47
2023-03-11T08:33:11.812Z,97319.59
2023-03-11T08:38:38.212Z,97323.53
2023-03-11T08:44:05.852Z,97323.56
2023-03-11T08:49:29.868Z,97332.50
2023-03-11T08:54:54.792Z,97354.09
2023-03-11T09:00:29.846Z,97350.56
2023-03-11T09:05:54.936Z,97359.66
2023-03-11T09:11:19.905Z,97349.75
2023-03-11T09:16:47.853Z,97372.13
2023-03-11T09:22:11.868Z,97380.94
2023-03-11T09:27:36.849Z,97395.94
2023-03-11T09:33:03.829Z,97404.19
2023-03-11T09:38:30.845Z,97414.03
2023-03-11T09:44:10.992Z,97418.22
2023-03-11T09:49:45.894Z,97427.59
2023-03-11T09:55:11.915Z,97426.22
2023-03-11T10:00:36.898Z,97436.00
2023-03-11T10:06:03.866Z,97450.16
2023-03-11T10:11:41.892Z,97454.19
2023-03-11T10:17:15.869Z,97464.91
2023-03-11T10:22:53.880Z,97465.28
2023-03-11T10:28:24.900Z,97467.41
2023-03-11T10:33:56.894Z,97483.63
2023-03-11T10:39:26.897Z,97503.34
2023-03-11T10:44:52.946Z,97488.69
2023-03-11T10:50:18.900Z,97504.06
2023-03-11T10:55:55.871Z,97498.91
2023-03-11T11:01:31.951Z,97511.72
2023-03-11T11:06:56.887Z,97522.84
2023-03-11T11:12:29.886Z,97526.44
2023-03-11T11:17:56.858Z,97533.53
2023-03-11T11:23:21.887Z,97531.50
2023-03-11T11:28:49.889Z,97545.69
2023-03-11T11:34:13.925Z,97530.34
2023-03-11T11:39:46.909Z,97535.50
2023-03-11T11:45:19.988Z,97534.34
2023-03-11T11:50:48.960Z,97537.59
2023-03-11T11:56:12.903Z,97538.63
2023-03-11T12:01:56.919Z,97538.63
2023-03-11T12:07:34.915Z,97537.53
2023-03-11T12:13:20.911Z,97551.75
2023-03-11T12:18:53.903Z,97552.47
2023-03-11T12:24:31.949Z,97538.16
2023-03-11T12:30:01.911Z,97550.53
2023-03-11T12:35:38.938Z,97559.22
2023-03-11T12:41:13.893Z,97562.84
2023-03-11T12:47:12.912Z,97558.50
2023-03-11T12:53:01.968Z,97554.19
2023-03-11T12:59:03.927Z,97547.16
2023-03-11T13:04:45.981Z,97563.28
2023-03-11T13:10:29.947Z,97561.19
2023-03-11T13:15:54.937Z,97567.78
2023-03-11T13:21:20.954Z,97562.13
2023-03-11T13:26:54.929Z,97575.09
2023-03-11T13:32:52.045Z,97575.59
2023-03-11T13:38:48.090Z,97568.06
2023-03-11T13:44:25.959Z,97567.63
2023-03-11T13:49:56.021Z,97579.97
2023-03-11T13:55:22.983Z,97594.69
2023-03-11T14:00:57.977Z,97586.13
2023-03-11T14:06:25.956Z,97604.53
2023-03-11T14:11:54.991Z,97600.13
2023-03-11T14:17:29.037Z,97597.88
2023-03-11T14:22:55.941Z,97596.19
2023-03-11T14:28:20.951Z,97617.38
2023-03-11T14:33:48.954Z,97625.72
2023-03-11T14:39:12.951Z,97627.09
2023-03-11T14:44:40.966Z,97635.03
2023-03-11T14:50:10.062Z,97641.41
2023-03-11T14:55:40.083Z,97649.75
2023-03-11T15:01:15.982Z,97649.38
2023-03-11T15:06:47.979Z,97650.78
2023-03-11T15:12:13.973Z,97644.81
2023-03-11T15:17:44.393Z,97648.84
2023-03-11T15:23:13.981Z,97649.84
2023-03-11T15:28:40.980Z,97658.91
2023-03-11T15:34:05.988Z,97666.25
2023-03-11T15:39:38.017Z,97664.06
2023-03-11T15:45:26.987Z,97686.19
2023-03-11T15:51:03.987Z,97682.75
2023-03-11T15:56:39.995Z,97695.63
2023-03-11T16:02:12.003Z,97694.97
2023-03-11T16:07:40.075Z,97708.22
2023-03-11T16:13:07.012Z,97703.59
2023-03-11T16:18:32.056Z,97706.97
2023-03-11T16:23:55.969Z,97719.97
2023-03-11T16:29:35.012Z,97724.72
2023-03-11T16:34:59.014Z,97732.63
2023-03-11T16:40:27.026Z,97736.31
2023-03-11T16:45:54.049Z,97733.75
2023-03-11T16:51:20.035Z,97736.00
2023-03-11T16:56:45.981Z,97734.34
2023-03-11T17:02:14.087Z,97738.56
2023-03-11T17:07:39.594Z,97752.34
2023-03-11T17:13:05.048Z,97752.03
2023-03-11T17:18:32.080Z,97758.50
2023-03-11T17:23:58.030Z,97757.25
2023-03-11T17:29:22.048Z,97761.06
2023-03-11T17:34:50.057Z,97771.16
2023-03-11T17:40:14.066Z,97775.44
2023-03-11T17:45:39.063Z,97784.22
2023-03-11T17:51:06.050Z,97778.84
2023-03-11T17:56:32.052Z,97788.47
2023-03-11T18:01:57.038Z,97793.56
2023-03-11T18:07:25.071Z,97800.63
2023-03-11T18:12:49.040Z,97805.84
2023-03-11T18:18:17.353Z,97804.88
2023-03-11T18:23:45.020Z,97811.69
2023-03-11T18:29:12.399Z,97816.72
2023-03-11T18:34:36.067Z,97817.25
2023-03-11T18:40:04.050Z,97819.59
2023-03-11T18:45:35.075Z,97827.50
2023-03-11T18:51:01.037Z,97820.97
2023-03-11T18:56:30.046Z,97819.97
2023-03-11T19:01:55.058Z,97832.91
2023-03-11T19:07:19.080Z,97829.56
2023-03-11T19:12:47.091Z,97838.78
2023-03-11T19:18:11.066Z,97835.41
2023-03-11T19:23:36.074Z,97845.16
2023-03-11T19:29:03.232Z,97844.06
2023-03-11T19:34:29.072Z,97858.75
2023-03-11T19:39:54.098Z,97857.88
2023-03-11T19:45:28.081Z,97853.59
2023-03-11T19:50:53.091Z,97872.16
2023-03-11T19:56:18.104Z,97874.50
2023-03-11T20:01:46.114Z,97872.06
2023-03-11T20:07:10.137Z,97872.50
2023-03-11T20:12:35.176Z,97879.13
2023-03-11T20:18:02.086Z,97885.66
2023-03-11T20:23:27.237Z,97884.44
2023-03-11T20:28:51.094Z,97890.34
2023-03-11T20:34:19.077Z,97880.28
2023-03-11T20:39:43.169Z,97890.81
2023-03-11T20:45:08.118Z,97899.06
2023-03-11T20:50:36.084Z,97882.50
2023-03-11T20:56:01.133Z,97872.59
2023-03-11T21:01:30.197Z,97878.19
2023-03-11T21:06:59.193Z,97879.03
2023-03-11T21:12:25.173Z,97870.78
2023-03-11T21:17:50.159Z,97868.63
2023-03-11T21:23:17.225Z,97867.66
2023-03-11T21:28:53.108Z,97902.63
2023-03-11T21:34:20.195Z,97902.84
2023-03-11T21:39:47.125Z,97893.88
2023-03-11T21:45:12.137Z,97890.56
2023-03-11T21:50:36.184Z,97884.50
2023-03-11T21:56:04.223Z,97883.34
2023-03-11T22:01:28.231Z,97882.31
2023-03-11T22:06:54.878Z,97893.81
2023-03-11T22:12:23.191Z,97908.78
2023-03-11T22:17:48.319Z,97909.75
2023-03-11T22:23:12.148Z,97913.84
2023-03-11T22:28:46.139Z,97909.88
2023-03-11T22:34:11.112Z,97908.09
2023-03-11T22:39:36.125Z,97918.97
2023-03-11T22:45:04.137Z,97911.59
2023-03-11T22:50:28.131Z,97903.84
2023-03-11T22:55:54.176Z,97911.47
2023-03-11T23:01:23.115Z,97907.75
2023-03-11T23:06:48.145Z,97917.66
2023-03-11T23:12:13.148Z,97914.50
2023-03-11T23:17:41.217Z,97921.50
2023-03-11T23:23:05.145Z,97921.13
2023-03-11T23:28:36.217Z,97924.16
2023-03-11T23:34:04.144Z,97931.19
2023-03-11T23:39:28.149Z,97928.50
2023-03-11T23:44:53.171Z,97936.75
2023-03-11T23:50:22.137Z,97930.09
2023-03-11T23:55:48.155Z,97940.38
